sensor_id;sensor_type;location;lat;lon;timestamp;P1;durP1;ratioP1;P2;durP2;ratioP2
61696;SDS011;47610;52.252;20.922;2023-08-06T00:04:32;22.40;;;9.70;;
61696;SDS011;47610;52.252;20.922;2023-08-06T00:09:35;19.60;;;9.70;;
61696;SDS011;47610;52.252;20.922;2023-08-06T00:14:38;23.00;;;10.90;;
61696;SDS011;47610;52.252;20.922;2023-08-06T00:19:41;23.10;;;10.60;;
61696;SDS011;47610;52.252;20.922;2023-08-06T00:24:44;17.50;;;9.80;;
61696;SDS011;47610;52.252;20.922;2023-08-06T00:29:47;15.60;;;9.20;;
61696;SDS011;47610;52.252;20.922;2023-08-06T00:34:50;14.60;;;9.30;;
61696;SDS011;47610;52.252;20.922;2023-08-06T00:39:54;13.10;;;8.70;;
61696;SDS011;47610;52.252;20.922;2023-08-06T00:44:57;15.10;;;8.50;;
61696;SDS011;47610;52.252;20.922;2023-08-06T00:50:00;11.80;;;7.70;;
61696;SDS011;47610;52.252;20.922;2023-08-06T00:55:03;9.30;;;7.30;;
61696;SDS011;47610;52.252;20.922;2023-08-06T01:05:10;10.70;;;7.60;;
61696;SDS011;47610;52.252;20.922;2023-08-06T01:10:18;10.90;;;8.00;;
61696;SDS011;47610;52.252;20.922;2023-08-06T01:15:28;10.50;;;7.60;;
61696;SDS011;47610;52.252;20.922;2023-08-06T01:20:34;11.40;;;8.30;;
61696;SDS011;47610;52.252;20.922;2023-08-06T01:25:39;15.30;;;8.90;;
61696;SDS011;47610;52.252;20.922;2023-08-06T01:30:50;12.10;;;7.80;;
61696;SDS011;47610;52.252;20.922;2023-08-06T01:35:54;11.20;;;7.90;;
61696;SDS011;47610;52.252;20.922;2023-08-06T01:46:00;10.80;;;7.70;;
61696;SDS011;47610;52.252;20.922;2023-08-06T01:51:05;10.80;;;8.50;;
61696;SDS011;47610;52.252;20.922;2023-08-06T01:56:08;9.50;;;6.60;;
61696;SDS011;47610;52.252;20.922;2023-08-06T02:01:11;9.90;;;7.30;;
61696;SDS011;47610;52.252;20.922;2023-08-06T02:06:14;11.40;;;7.70;;
61696;SDS011;47610;52.252;20.922;2023-08-06T02:11:17;12.90;;;7.60;;
61696;SDS011;47610;52.252;20.922;2023-08-06T02:16:20;10.70;;;7.20;;
61696;SDS011;47610;52.252;20.922;2023-08-06T02:21:23;11.50;;;7.10;;
61696;SDS011;47610;52.252;20.922;2023-08-06T02:26:26;10.50;;;7.70;;
61696;SDS011;47610;52.252;20.922;2023-08-06T02:31:29;10.50;;;6.90;;
61696;SDS011;47610;52.252;20.922;2023-08-06T02:36:32;8.80;;;6.80;;
61696;SDS011;47610;52.252;20.922;2023-08-06T02:41:36;10.00;;;7.10;;
61696;SDS011;47610;52.252;20.922;2023-08-06T02:46:39;11.00;;;7.30;;
61696;SDS011;47610;52.252;20.922;2023-08-06T02:51:42;11.40;;;7.80;;
61696;SDS011;47610;52.252;20.922;2023-08-06T02:56:47;9.70;;;7.00;;
61696;SDS011;47610;52.252;20.922;2023-08-06T03:01:50;10.70;;;6.40;;
61696;SDS011;47610;52.252;20.922;2023-08-06T03:06:53;12.10;;;8.30;;
61696;SDS011;47610;52.252;20.922;2023-08-06T03:11:56;10.30;;;7.60;;
61696;SDS011;47610;52.252;20.922;2023-08-06T03:16:59;11.00;;;7.90;;
61696;SDS011;47610;52.252;20.922;2023-08-06T03:22:02;12.80;;;8.50;;
61696;SDS011;47610;52.252;20.922;2023-08-06T03:27:06;12.80;;;8.60;;
61696;SDS011;47610;52.252;20.922;2023-08-06T03:32:09;13.40;;;9.30;;
61696;SDS011;47610;52.252;20.922;2023-08-06T03:37:12;13.60;;;9.60;;
61696;SDS011;47610;52.252;20.922;2023-08-06T03:42:15;15.60;;;10.40;;
61696;SDS011;47610;52.252;20.922;2023-08-06T03:47:18;18.50;;;11.10;;
61696;SDS011;47610;52.252;20.922;2023-08-06T03:52:22;13.80;;;10.40;;
61696;SDS011;47610;52.252;20.922;2023-08-06T03:57:25;14.50;;;10.30;;
61696;SDS011;47610;52.252;20.922;2023-08-06T04:02:28;17.60;;;10.60;;
61696;SDS011;47610;52.252;20.922;2023-08-06T04:07:31;18.20;;;12.20;;
61696;SDS011;47610;52.252;20.922;2023-08-06T04:12:34;16.40;;;11.40;;
61696;SDS011;47610;52.252;20.922;2023-08-06T04:17:37;19.70;;;13.00;;
61696;SDS011;47610;52.252;20.922;2023-08-06T04:22:40;17.00;;;11.80;;
61696;SDS011;47610;52.252;20.922;2023-08-06T04:27:43;18.00;;;11.90;;
61696;SDS011;47610;52.252;20.922;2023-08-06T04:32:46;17.00;;;13.40;;
61696;SDS011;47610;52.252;20.922;2023-08-06T04:37:50;19.60;;;13.80;;
61696;SDS011;47610;52.252;20.922;2023-08-06T04:42:54;20.20;;;13.40;;
61696;SDS011;47610;52.252;20.922;2023-08-06T04:47:57;15.90;;;11.30;;
61696;SDS011;47610;52.252;20.922;2023-08-06T04:53:00;15.70;;;12.00;;
61696;SDS011;47610;52.252;20.922;2023-08-06T04:58:03;18.10;;;12.60;;
61696;SDS011;47610;52.252;20.922;2023-08-06T05:03:06;19.20;;;13.40;;
61696;SDS011;47610;52.252;20.922;2023-08-06T05:08:13;16.30;;;12.00;;
61696;SDS011;47610;52.252;20.922;2023-08-06T05:13:16;19.20;;;12.40;;
61696;SDS011;47610;52.252;20.922;2023-08-06T05:18:19;19.80;;;13.40;;
61696;SDS011;47610;52.252;20.922;2023-08-06T05:23:23;15.40;;;12.00;;
61696;SDS011;47610;52.252;20.922;2023-08-06T05:28:26;16.60;;;12.00;;
61696;SDS011;47610;52.252;20.922;2023-08-06T05:33:29;17.50;;;11.00;;
61696;SDS011;47610;52.252;20.922;2023-08-06T05:38:32;17.70;;;11.90;;
61696;SDS011;47610;52.252;20.922;2023-08-06T05:43:35;13.70;;;10.40;;
61696;SDS011;47610;52.252;20.922;2023-08-06T05:48:38;13.50;;;9.90;;
61696;SDS011;47610;52.252;20.922;2023-08-06T05:53:41;13.70;;;9.40;;
61696;SDS011;47610;52.252;20.922;2023-08-06T05:58:44;12.70;;;9.40;;
61696;SDS011;47610;52.252;20.922;2023-08-06T06:03:47;10.00;;;9.00;;
61696;SDS011;47610;52.252;20.922;2023-08-06T06:08:50;12.90;;;9.40;;
61696;SDS011;47610;52.252;20.922;2023-08-06T06:13:54;11.10;;;8.90;;
61696;SDS011;47610;52.252;20.922;2023-08-06T06:18:57;11.20;;;8.60;;
61696;SDS011;47610;52.252;20.922;2023-08-06T06:24:00;12.00;;;8.30;;
61696;SDS011;47610;52.252;20.922;2023-08-06T06:29:03;10.40;;;8.20;;
61696;SDS011;47610;52.252;20.922;2023-08-06T06:34:06;9.00;;;7.70;;
61696;SDS011;47610;52.252;20.922;2023-08-06T06:39:09;15.80;;;8.00;;
61696;SDS011;47610;52.252;20.922;2023-08-06T06:44:12;13.70;;;7.80;;
61696;SDS011;47610;52.252;20.922;2023-08-06T06:49:16;9.60;;;7.10;;
61696;SDS011;47610;52.252;20.922;2023-08-06T06:54:19;9.80;;;7.50;;
61696;SDS011;47610;52.252;20.922;2023-08-06T06:59:22;9.30;;;7.10;;
61696;SDS011;47610;52.252;20.922;2023-08-06T07:04:25;8.60;;;7.10;;
61696;SDS011;47610;52.252;20.922;2023-08-06T07:09:28;12.50;;;7.20;;
61696;SDS011;47610;52.252;20.922;2023-08-06T07:14:31;8.60;;;6.60;;
61696;SDS011;47610;52.252;20.922;2023-08-06T07:19:34;13.60;;;8.50;;
61696;SDS011;47610;52.252;20.922;2023-08-06T07:24:37;11.00;;;6.80;;
61696;SDS011;47610;52.252;20.922;2023-08-06T07:29:40;12.20;;;7.00;;
61696;SDS011;47610;52.252;20.922;2023-08-06T07:34:43;10.60;;;7.30;;
61696;SDS011;47610;52.252;20.922;2023-08-06T07:39:46;12.30;;;7.20;;
61696;SDS011;47610;52.252;20.922;2023-08-06T07:44:51;12.00;;;7.10;;
61696;SDS011;47610;52.252;20.922;2023-08-06T07:49:55;11.00;;;7.10;;
61696;SDS011;47610;52.252;20.922;2023-08-06T07:54:58;9.90;;;7.60;;
61696;SDS011;47610;52.252;20.922;2023-08-06T08:00:02;9.90;;;6.60;;
61696;SDS011;47610;52.252;20.922;2023-08-06T08:05:07;13.00;;;7.10;;
61696;SDS011;47610;52.252;20.922;2023-08-06T08:10:10;18.20;;;7.40;;
61696;SDS011;47610;52.252;20.922;2023-08-06T08:15:13;12.50;;;6.60;;
61696;SDS011;47610;52.252;20.922;2023-08-06T08:20:16;11.60;;;6.70;;
61696;SDS011;47610;52.252;20.922;2023-08-06T08:25:19;10.50;;;6.90;;
61696;SDS011;47610;52.252;20.922;2023-08-06T08:30:22;10.80;;;6.20;;
61696;SDS011;47610;52.252;20.922;2023-08-06T08:35:26;10.00;;;6.80;;
61696;SDS011;47610;52.252;20.922;2023-08-06T08:40:29;13.60;;;6.60;;
61696;SDS011;47610;52.252;20.922;2023-08-06T08:45:36;11.30;;;7.20;;
61696;SDS011;47610;52.252;20.922;2023-08-06T08:50:44;10.20;;;6.40;;
61696;SDS011;47610;52.252;20.922;2023-08-06T08:55:48;11.30;;;6.20;;
61696;SDS011;47610;52.252;20.922;2023-08-06T09:00:52;14.00;;;6.10;;
61696;SDS011;47610;52.252;20.922;2023-08-06T09:05:56;8.40;;;6.40;;
61696;SDS011;47610;52.252;20.922;2023-08-06T09:11:01;13.30;;;5.90;;
61696;SDS011;47610;52.252;20.922;2023-08-06T09:16:05;6.00;;;4.90;;
61696;SDS011;47610;52.252;20.922;2023-08-06T09:26:15;12.00;;;5.40;;
61696;SDS011;47610;52.252;20.922;2023-08-06T09:31:18;8.70;;;5.20;;
61696;SDS011;47610;52.252;20.922;2023-08-06T09:36:21;6.30;;;4.80;;
61696;SDS011;47610;52.252;20.922;2023-08-06T09:41:27;8.80;;;4.90;;
61696;SDS011;47610;52.252;20.922;2023-08-06T09:46:31;6.90;;;5.10;;
61696;SDS011;47610;52.252;20.922;2023-08-06T09:51:34;5.00;;;4.50;;
61696;SDS011;47610;52.252;20.922;2023-08-06T09:56:39;9.40;;;5.10;;
61696;SDS011;47610;52.252;20.922;2023-08-06T10:01:43;8.10;;;5.20;;
61696;SDS011;47610;52.252;20.922;2023-08-06T10:06:47;7.80;;;4.40;;
61696;SDS011;47610;52.252;20.922;2023-08-06T10:11:50;9.50;;;4.70;;
61696;SDS011;47610;52.252;20.922;2023-08-06T10:16:54;7.90;;;4.50;;
61696;SDS011;47610;52.252;20.922;2023-08-06T10:22:11;7.00;;;4.20;;
61696;SDS011;47610;52.252;20.922;2023-08-06T10:27:17;6.80;;;4.70;;
61696;SDS011;47610;52.252;20.922;2023-08-06T10:32:22;8.20;;;5.00;;
61696;SDS011;47610;52.252;20.922;2023-08-06T10:37:52;10.50;;;4.30;;
61696;SDS011;47610;52.252;20.922;2023-08-06T10:42:59;12.90;;;4.80;;
61696;SDS011;47610;52.252;20.922;2023-08-06T10:48:04;12.50;;;4.70;;
61696;SDS011;47610;52.252;20.922;2023-08-06T10:53:07;6.60;;;4.50;;
61696;SDS011;47610;52.252;20.922;2023-08-06T11:03:16;6.80;;;4.60;;
61696;SDS011;47610;52.252;20.922;2023-08-06T11:08:32;8.20;;;4.40;;
61696;SDS011;47610;52.252;20.922;2023-08-06T11:13:36;5.60;;;4.30;;
61696;SDS011;47610;52.252;20.922;2023-08-06T11:18:39;6.80;;;4.10;;
61696;SDS011;47610;52.252;20.922;2023-08-06T11:28:44;8.00;;;4.60;;
61696;SDS011;47610;52.252;20.922;2023-08-06T11:33:47;6.30;;;3.90;;
61696;SDS011;47610;52.252;20.922;2023-08-06T11:38:51;7.60;;;3.80;;
61696;SDS011;47610;52.252;20.922;2023-08-06T11:43:54;13.50;;;4.40;;
61696;SDS011;47610;52.252;20.922;2023-08-06T11:53:59;6.80;;;4.20;;
61696;SDS011;47610;52.252;20.922;2023-08-06T11:59:02;17.80;;;4.50;;
61696;SDS011;47610;52.252;20.922;2023-08-06T12:04:05;7.20;;;4.20;;
61696;SDS011;47610;52.252;20.922;2023-08-06T12:09:09;5.30;;;3.80;;
61696;SDS011;47610;52.252;20.922;2023-08-06T12:14:12;5.30;;;4.30;;
61696;SDS011;47610;52.252;20.922;2023-08-06T12:19:15;10.50;;;4.30;;
61696;SDS011;47610;52.252;20.922;2023-08-06T12:24:18;6.60;;;3.90;;
61696;SDS011;47610;52.252;20.922;2023-08-06T12:29:21;6.80;;;4.30;;
61696;SDS011;47610;52.252;20.922;2023-08-06T12:34:24;6.50;;;4.10;;
61696;SDS011;47610;52.252;20.922;2023-08-06T12:39:27;15.40;;;5.40;;
61696;SDS011;47610;52.252;20.922;2023-08-06T12:44:30;12.90;;;4.50;;
61696;SDS011;47610;52.252;20.922;2023-08-06T12:54:35;7.90;;;4.70;;
61696;SDS011;47610;52.252;20.922;2023-08-06T12:59:38;7.90;;;4.60;;
61696;SDS011;47610;52.252;20.922;2023-08-06T13:04:41;8.80;;;4.70;;
61696;SDS011;47610;52.252;20.922;2023-08-06T13:09:44;6.10;;;4.70;;
61696;SDS011;47610;52.252;20.922;2023-08-06T13:14:47;5.30;;;4.40;;
61696;SDS011;47610;52.252;20.922;2023-08-06T13:19:50;10.00;;;4.00;;
61696;SDS011;47610;52.252;20.922;2023-08-06T13:24:53;9.30;;;3.80;;
61696;SDS011;47610;52.252;20.922;2023-08-06T13:29:57;9.40;;;4.30;;
61696;SDS011;47610;52.252;20.922;2023-08-06T13:35:00;9.30;;;3.90;;
61696;SDS011;47610;52.252;20.922;2023-08-06T13:40:03;5.40;;;3.90;;
61696;SDS011;47610;52.252;20.922;2023-08-06T13:45:08;7.60;;;4.30;;
61696;SDS011;47610;52.252;20.922;2023-08-06T13:50:11;6.70;;;4.10;;
61696;SDS011;47610;52.252;20.922;2023-08-06T13:55:15;6.30;;;3.40;;
61696;SDS011;47610;52.252;20.922;2023-08-06T14:00:18;7.30;;;3.90;;
61696;SDS011;47610;52.252;20.922;2023-08-06T14:10:23;4.90;;;3.90;;
61696;SDS011;47610;52.252;20.922;2023-08-06T14:15:26;6.40;;;3.70;;
61696;SDS011;47610;52.252;20.922;2023-08-06T14:20:29;6.40;;;3.80;;
61696;SDS011;47610;52.252;20.922;2023-08-06T14:25:32;5.20;;;3.80;;
61696;SDS011;47610;52.252;20.922;2023-08-06T14:30:36;5.10;;;3.70;;
61696;SDS011;47610;52.252;20.922;2023-08-06T14:35:46;5.20;;;3.80;;
61696;SDS011;47610;52.252;20.922;2023-08-06T14:40:49;3.40;;;3.10;;
61696;SDS011;47610;52.252;20.922;2023-08-06T14:45:52;5.30;;;3.40;;
61696;SDS011;47610;52.252;20.922;2023-08-06T14:50:55;7.10;;;3.30;;
61696;SDS011;47610;52.252;20.922;2023-08-06T14:55:58;3.90;;;3.50;;
61696;SDS011;47610;52.252;20.922;2023-08-06T15:01:01;5.00;;;3.30;;
61696;SDS011;47610;52.252;20.922;2023-08-06T15:06:04;4.60;;;3.00;;
61696;SDS011;47610;52.252;20.922;2023-08-06T15:11:07;3.20;;;2.50;;
61696;SDS011;47610;52.252;20.922;2023-08-06T15:16:10;5.00;;;2.60;;
61696;SDS011;47610;52.252;20.922;2023-08-06T15:21:13;2.30;;;1.80;;
61696;SDS011;47610;52.252;20.922;2023-08-06T15:26:17;2.30;;;1.60;;
61696;SDS011;47610;52.252;20.922;2023-08-06T15:31:20;4.00;;;1.30;;
61696;SDS011;47610;52.252;20.922;2023-08-06T15:36:23;2.20;;;1.30;;
61696;SDS011;47610;52.252;20.922;2023-08-06T15:41:26;3.30;;;1.30;;
61696;SDS011;47610;52.252;20.922;2023-08-06T15:46:29;3.00;;;1.10;;
61696;SDS011;47610;52.252;20.922;2023-08-06T15:51:32;2.00;;;1.10;;
61696;SDS011;47610;52.252;20.922;2023-08-06T15:56:36;1.60;;;1.10;;
61696;SDS011;47610;52.252;20.922;2023-08-06T16:01:39;1.90;;;0.90;;
61696;SDS011;47610;52.252;20.922;2023-08-06T16:06:42;1.80;;;0.80;;
61696;SDS011;47610;52.252;20.922;2023-08-06T16:11:45;2.60;;;1.20;;
61696;SDS011;47610;52.252;20.922;2023-08-06T16:16:48;1.70;;;0.90;;
61696;SDS011;47610;52.252;20.922;2023-08-06T16:21:51;1.10;;;0.70;;
61696;SDS011;47610;52.252;20.922;2023-08-06T16:26:54;1.80;;;1.00;;
61696;SDS011;47610;52.252;20.922;2023-08-06T16:31:57;1.70;;;0.90;;
61696;SDS011;47610;52.252;20.922;2023-08-06T16:37:00;1.60;;;0.80;;
61696;SDS011;47610;52.252;20.922;2023-08-06T16:42:04;1.30;;;0.70;;
61696;SDS011;47610;52.252;20.922;2023-08-06T16:47:08;1.50;;;0.80;;
61696;SDS011;47610;52.252;20.922;2023-08-06T16:52:11;2.40;;;0.80;;
61696;SDS011;47610;52.252;20.922;2023-08-06T16:57:14;1.30;;;0.70;;
61696;SDS011;47610;52.252;20.922;2023-08-06T17:02:17;1.30;;;0.70;;
61696;SDS011;47610;52.252;20.922;2023-08-06T17:07:20;4.50;;;4.00;;
61696;SDS011;47610;52.252;20.922;2023-08-06T17:12:23;1.20;;;0.90;;
61696;SDS011;47610;52.252;20.922;2023-08-06T17:17:26;1.30;;;0.80;;
61696;SDS011;47610;52.252;20.922;2023-08-06T17:22:29;5.30;;;1.40;;
61696;SDS011;47610;52.252;20.922;2023-08-06T17:27:33;1.60;;;1.00;;
61696;SDS011;47610;52.252;20.922;2023-08-06T17:32:36;2.20;;;1.20;;
61696;SDS011;47610;52.252;20.922;2023-08-06T17:37:41;2.00;;;1.00;;
61696;SDS011;47610;52.252;20.922;2023-08-06T17:42:44;1.40;;;1.10;;
61696;SDS011;47610;52.252;20.922;2023-08-06T17:47:47;4.20;;;1.30;;
61696;SDS011;47610;52.252;20.922;2023-08-06T17:52:51;2.90;;;1.20;;
61696;SDS011;47610;52.252;20.922;2023-08-06T17:57:54;2.80;;;1.20;;
61696;SDS011;47610;52.252;20.922;2023-08-06T18:02:57;3.50;;;1.60;;
61696;SDS011;47610;52.252;20.922;2023-08-06T18:08:00;2.80;;;1.60;;
61696;SDS011;47610;52.252;20.922;2023-08-06T18:13:03;1.70;;;1.40;;
61696;SDS011;47610;52.252;20.922;2023-08-06T18:18:06;2.80;;;1.50;;
61696;SDS011;47610;52.252;20.922;2023-08-06T18:23:09;1.80;;;1.40;;
61696;SDS011;47610;52.252;20.922;2023-08-06T18:28:13;2.00;;;1.40;;
61696;SDS011;47610;52.252;20.922;2023-08-06T18:33:16;4.10;;;1.50;;
61696;SDS011;47610;52.252;20.922;2023-08-06T18:38:19;1.70;;;1.40;;
61696;SDS011;47610;52.252;20.922;2023-08-06T18:43:22;2.40;;;1.50;;
61696;SDS011;47610;52.252;20.922;2023-08-06T18:48:25;2.80;;;1.80;;
61696;SDS011;47610;52.252;20.922;2023-08-06T18:53:28;2.50;;;1.90;;
61696;SDS011;47610;52.252;20.922;2023-08-06T18:58:31;2.30;;;1.70;;
61696;SDS011;47610;52.252;20.922;2023-08-06T19:03:34;5.10;;;1.50;;
61696;SDS011;47610;52.252;20.922;2023-08-06T19:08:37;2.20;;;1.30;;
61696;SDS011;47610;52.252;20.922;2023-08-06T19:13:40;3.50;;;1.20;;
61696;SDS011;47610;52.252;20.922;2023-08-06T19:18:43;2.50;;;1.00;;
61696;SDS011;47610;52.252;20.922;2023-08-06T19:23:46;2.90;;;1.40;;
61696;SDS011;47610;52.252;20.922;2023-08-06T19:28:49;1.50;;;0.90;;
61696;SDS011;47610;52.252;20.922;2023-08-06T19:33:52;1.40;;;0.90;;
61696;SDS011;47610;52.252;20.922;2023-08-06T19:38:55;1.20;;;0.70;;
61696;SDS011;47610;52.252;20.922;2023-08-06T19:43:59;1.40;;;0.80;;
61696;SDS011;47610;52.252;20.922;2023-08-06T19:49:02;1.20;;;0.70;;
61696;SDS011;47610;52.252;20.922;2023-08-06T19:54:05;0.90;;;0.60;;
61696;SDS011;47610;52.252;20.922;2023-08-06T19:59:08;1.30;;;0.70;;
61696;SDS011;47610;52.252;20.922;2023-08-06T20:04:12;1.00;;;0.70;;
61696;SDS011;47610;52.252;20.922;2023-08-06T20:09:15;10.70;;;8.10;;
61696;SDS011;47610;52.252;20.922;2023-08-06T20:14:18;1.60;;;0.90;;
61696;SDS011;47610;52.252;20.922;2023-08-06T20:19:21;1.90;;;0.60;;
61696;SDS011;47610;52.252;20.922;2023-08-06T20:24:24;1.00;;;0.40;;
61696;SDS011;47610;52.252;20.922;2023-08-06T20:29:27;0.90;;;0.60;;
61696;SDS011;47610;52.252;20.922;2023-08-06T20:34:30;0.80;;;0.50;;
61696;SDS011;47610;52.252;20.922;2023-08-06T20:39:33;1.20;;;0.60;;
61696;SDS011;47610;52.252;20.922;2023-08-06T20:44:38;2.50;;;0.50;;
61696;SDS011;47610;52.252;20.922;2023-08-06T20:49:41;0.40;;;0.30;;
61696;SDS011;47610;52.252;20.922;2023-08-06T20:54:44;0.60;;;0.40;;
61696;SDS011;47610;52.252;20.922;2023-08-06T20:59:47;3.50;;;0.40;;
61696;SDS011;47610;52.252;20.922;2023-08-06T21:04:50;0.50;;;0.50;;
61696;SDS011;47610;52.252;20.922;2023-08-06T21:09:53;2.00;;;0.50;;
61696;SDS011;47610;52.252;20.922;2023-08-06T21:14:56;0.80;;;0.50;;
61696;SDS011;47610;52.252;20.922;2023-08-06T21:19:59;1.10;;;0.50;;
61696;SDS011;47610;52.252;20.922;2023-08-06T21:25:03;1.00;;;0.40;;
61696;SDS011;47610;52.252;20.922;2023-08-06T21:30:08;2.20;;;0.60;;
61696;SDS011;47610;52.252;20.922;2023-08-06T21:35:11;0.80;;;0.50;;
61696;SDS011;47610;52.252;20.922;2023-08-06T21:40:14;1.10;;;0.50;;
61696;SDS011;47610;52.252;20.922;2023-08-06T21:45:18;2.50;;;0.50;;
61696;SDS011;47610;52.252;20.922;2023-08-06T21:50:21;2.60;;;0.60;;
61696;SDS011;47610;52.252;20.922;2023-08-06T21:55:24;0.70;;;0.40;;
61696;SDS011;47610;52.252;20.922;2023-08-06T22:00:30;1.00;;;0.40;;
61696;SDS011;47610;52.252;20.922;2023-08-06T22:05:33;1.20;;;0.60;;
61696;SDS011;47610;52.252;20.922;2023-08-06T22:10:36;0.80;;;0.40;;
61696;SDS011;47610;52.252;20.922;2023-08-06T22:15:39;0.50;;;0.20;;
61696;SDS011;47610;52.252;20.922;2023-08-06T22:20:42;1.50;;;0.30;;
61696;SDS011;47610;52.252;20.922;2023-08-06T22:25:45;1.00;;;0.20;;
61696;SDS011;47610;52.252;20.922;2023-08-06T22:30:48;0.40;;;0.30;;
61696;SDS011;47610;52.252;20.922;2023-08-06T22:35:52;0.70;;;0.40;;
61696;SDS011;47610;52.252;20.922;2023-08-06T22:40:55;1.00;;;0.30;;
61696;SDS011;47610;52.252;20.922;2023-08-06T22:45:58;0.90;;;0.30;;
61696;SDS011;47610;52.252;20.922;2023-08-06T22:51:01;0.70;;;0.40;;
61696;SDS011;47610;52.252;20.922;2023-08-06T22:56:05;1.40;;;0.40;;
61696;SDS011;47610;52.252;20.922;2023-08-06T23:01:08;0.80;;;0.40;;
61696;SDS011;47610;52.252;20.922;2023-08-06T23:06:11;0.50;;;0.20;;
61696;SDS011;47610;52.252;20.922;2023-08-06T23:11:14;0.80;;;0.30;;
61696;SDS011;47610;52.252;20.922;2023-08-06T23:16:17;0.50;;;0.20;;
61696;SDS011;47610;52.252;20.922;2023-08-06T23:21:20;1.80;;;0.30;;
61696;SDS011;47610;52.252;20.922;2023-08-06T23:26:23;1.60;;;0.30;;
61696;SDS011;47610;52.252;20.922;2023-08-06T23:31:27;1.20;;;0.40;;
61696;SDS011;47610;52.252;20.922;2023-08-06T23:36:30;0.80;;;0.40;;
61696;SDS011;47610;52.252;20.922;2023-08-06T23:41:33;2.30;;;0.30;;
61696;SDS011;47610;52.252;20.922;2023-08-06T23:46:36;0.50;;;0.20;;
61696;SDS011;47610;52.252;20.922;2023-08-06T23:51:39;0.50;;;0.30;;
61696;SDS011;47610;52.252;20.922;2023-08-06T23:56:42;0.30;;;0.20;;
